Time;durP1;ratioP1;P1;durP2;ratioP2;P2;SDS_P1;SDS_P2;PMS_P1;PMS_P2;Temp;Humidity;BMP_temperature;BMP_pressure;BME280_temperature;BME280_humidity;BME280_pressure;Samples;Min_cycle;Max_cycle;Signal;HPM_P1;HPM_P2
2022/05/07 00:05:20;;;;;;;2.58;2.38;;;;;;;;;;20816451;28;20518;-80
2022/05/07 00:15:22;;;;;;;2.38;2.17;;;;;;;;;;20800154;28;20191;-80
2022/05/07 00:25:24;;;;;;;2.92;2.30;;;;;;;;;;20777955;28;20048;-79
2022/05/07 00:35:26;;;;;;;3.65;2.03;;;;;;;;;;20800489;28;20048;-80
2022/05/07 00:45:28;;;;;;;2.72;2.17;;;;;;;;;;20808198;28;20041;-79
2022/05/07 00:55:31;;;;;;;2.38;2.13;;;;;;;;;;20802668;28;20076;-79
2022/05/07 01:05:33;;;;;;;2.88;2.10;;;;;;;;;;20789539;28;20132;-81
2022/05/07 01:15:45;;;;;;;3.17;2.35;;;;;;;;;;20814134;28;20115;-81
2022/05/07 01:25:51;;;;;;;2.83;2.22;;;;;;;;;;20790718;28;20144;-81
2022/05/07 01:35:53;;;;;;;2.50;2.25;;;;;;;;;;20811374;28;20072;-80
2022/05/07 01:45:56;;;;;;;2.63;2.17;;;;;;;;;;20803815;28;20160;-79
2022/05/07 01:55:58;;;;;;;2.40;2.20;;;;;;;;;;20764350;28;20480;-79
2022/05/07 02:06:11;;;;;;;2.30;2.10;;;;;;;;;;20793489;28;20518;-80
2022/05/07 02:16:18;;;;;;;2.95;2.53;;;;;;;;;;20813047;28;20075;-80
2022/05/07 02:26:20;;;;;;;2.60;2.17;;;;;;;;;;20789424;28;20038;-81
2022/05/07 02:36:23;;;;;;;2.45;2.25;;;;;;;;;;20813983;28;20545;-80
2022/05/07 02:46:25;;;;;;;4.28;2.47;;;;;;;;;;20818485;28;20129;-81
2022/05/07 02:56:29;;;;;;;2.30;2.10;;;;;;;;;;20808041;28;20361;-81
2022/05/07 03:06:32;;;;;;;2.80;2.55;;;;;;;;;;20833183;28;20045;-80
2022/05/07 03:16:35;;;;;;;2.83;2.25;;;;;;;;;;20783657;28;20142;-79
2022/05/07 03:26:41;;;;;;;2.67;2.30;;;;;;;;;;20831904;28;20073;-80
2022/05/07 03:36:43;;;;;;;2.67;2.42;;;;;;;;;;20815070;28;20476;-80
2022/05/07 03:46:48;;;;;;;3.25;2.63;;;;;;;;;;20795663;28;20053;-79
2022/05/07 03:56:50;;;;;;;2.97;2.33;;;;;;;;;;20792041;28;20041;-79
2022/05/07 04:06:58;;;;;;;2.40;2.20;;;;;;;;;;20805623;28;20064;-81
2022/05/07 04:17:01;;;;;;;2.88;2.55;;;;;;;;;;20778753;28;20061;-80
2022/05/07 04:27:04;;;;;;;2.58;2.38;;;;;;;;;;20809372;28;20045;-81
2022/05/07 04:37:07;;;;;;;2.90;2.40;;;;;;;;;;20800764;28;20049;-80
2022/05/07 04:47:09;;;;;;;2.65;2.45;;;;;;;;;;20810624;28;20053;-79
2022/05/07 04:57:11;;;;;;;3.17;2.70;;;;;;;;;;20777031;28;20048;-84
2022/05/07 05:07:23;;;;;;;3.17;2.40;;;;;;;;;;20805980;28;20111;-80
2022/05/07 05:17:27;;;;;;;2.55;2.35;;;;;;;;;;20799909;28;20080;-81
2022/05/07 05:27:29;;;;;;;2.58;2.20;;;;;;;;;;20820196;28;20045;-81
2022/05/07 05:37:31;;;;;;;2.40;2.20;;;;;;;;;;20813251;28;20410;-80
2022/05/07 05:47:34;;;;;;;2.33;2.13;;;;;;;;;;20786053;28;20058;-80
2022/05/07 05:57:36;;;;;;;2.70;2.40;;;;;;;;;;20773988;28;20073;-77
2022/05/07 06:07:39;;;;;;;2.78;2.00;;;;;;;;;;20788197;28;20045;-80
2022/05/07 06:17:41;;;;;;;1.98;1.70;;;;;;;;;;20823873;28;20495;-78
2022/05/07 06:27:44;;;;;;;2.38;1.70;;;;;;;;;;20801897;28;20077;-79
2022/05/07 06:37:54;;;;;;;2.05;1.40;;;;;;;;;;20805431;28;20049;-79
2022/05/07 06:47:59;;;;;;;2.30;1.70;;;;;;;;;;20819963;28;20457;-82
2022/05/07 06:58:02;;;;;;;1.75;1.63;;;;;;;;;;20796716;28;20069;-80
2022/05/07 07:08:24;;;;;;;1.73;1.63;;;;;;;;;;20812864;28;20045;-79
2022/05/07 07:18:26;;;;;;;1.30;1.20;;;;;;;;;;20829043;28;20100;-81
2022/05/07 07:28:27;;;;;;;1.40;1.30;;;;;;;;;;20832159;28;20083;-77
2022/05/07 07:38:30;;;;;;;1.17;1.08;;;;;;;;;;20835491;28;20494;-78
2022/05/07 07:48:33;;;;;;;1.30;1.20;;;;;;;;;;20834640;28;20053;-79
2022/05/07 07:58:36;;;;;;;1.35;1.25;;;;;;;;;;20834251;28;20096;-87
2022/05/07 08:18:58;;;;;;;2.00;1.50;;;;;;;;;;20832583;28;20068;-78
2022/05/07 08:29:00;;;;;;;2.05;1.80;;;;;;;;;;20814114;28;20049;-78
2022/05/07 08:39:02;;;;;;;2.00;1.58;;;;;;;;;;20830718;28;20526;-77
2022/05/07 08:49:04;;;;;;;1.77;1.50;;;;;;;;;;20830208;28;20057;-77
2022/05/07 08:59:06;;;;;;;2.15;1.80;;;;;;;;;;20829739;28;20060;-77
2022/05/07 09:09:08;;;;;;;1.80;1.60;;;;;;;;;;20810209;28;20061;-77
2022/05/07 09:19:19;;;;;;;3.25;1.85;;;;;;;;;;20827638;28;20088;-77
2022/05/07 09:29:21;;;;;;;2.00;1.60;;;;;;;;;;20816063;28;20462;-78
2022/05/07 09:39:30;;;;;;;2.03;1.83;;;;;;;;;;20826206;28;20136;-81
2022/05/07 09:49:33;;;;;;;1.63;1.52;;;;;;;;;;20825829;28;20045;-82
2022/05/07 09:59:36;;;;;;;1.55;1.35;;;;;;;;;;20825129;28;20046;-78
2022/05/07 10:09:56;;;;;;;1.98;1.80;;;;;;;;;;20825624;28;20073;-81
2022/05/07 10:20:05;;;;;;;2.13;1.83;;;;;;;;;;20825959;28;20140;-80
2022/05/07 10:30:09;;;;;;;2.20;1.63;;;;;;;;;;20824587;28;20447;-80
2022/05/07 10:40:13;;;;;;;1.77;1.33;;;;;;;;;;20822966;28;20050;-79
2022/05/07 10:50:16;;;;;;;2.70;2.20;;;;;;;;;;20813804;28;20085;-80
2022/05/07 11:00:20;;;;;;;2.28;2.00;;;;;;;;;;20821697;28;20065;-79
2022/05/07 11:10:26;;;;;;;3.38;2.47;;;;;;;;;;20805090;28;20117;-80
2022/05/07 11:20:35;;;;;;;3.23;2.73;;;;;;;;;;20802902;28;20500;-79
2022/05/07 11:30:48;;;;;;;3.22;2.53;;;;;;;;;;20796443;28;20434;-78
2022/05/07 11:40:52;;;;;;;3.20;2.90;;;;;;;;;;20835543;28;20065;-78
2022/05/07 11:50:59;;;;;;;3.20;2.80;;;;;;;;;;20835055;28;20042;-78
2022/05/07 12:01:01;;;;;;;3.97;3.50;;;;;;;;;;20834105;28;20037;-77
2022/05/07 12:11:04;;;;;;;4.13;3.67;;;;;;;;;;20826112;28;20045;-77
2022/05/07 12:21:06;;;;;;;4.88;3.90;;;;;;;;;;20824871;28;20053;-76
2022/05/07 12:31:08;;;;;;;5.40;3.38;;;;;;;;;;20812167;28;20041;-76
2022/05/07 12:41:09;;;;;;;5.13;3.78;;;;;;;;;;20797394;28;20530;-76
2022/05/07 12:51:11;;;;;;;4.97;3.58;;;;;;;;;;20801940;28;20061;-77
2022/05/07 13:01:13;;;;;;;5.40;4.45;;;;;;;;;;20803115;28;20057;-77
2022/05/07 13:11:15;;;;;;;5.38;4.07;;;;;;;;;;20801913;28;20045;-78
2022/05/07 13:21:17;;;;;;;5.95;4.70;;;;;;;;;;20789819;28;20049;-78
2022/05/07 13:31:19;;;;;;;4.82;4.05;;;;;;;;;;20800628;28;20053;-78
2022/05/07 13:41:21;;;;;;;5.10;3.90;;;;;;;;;;20792815;28;20108;-78
2022/05/07 13:51:23;;;;;;;7.03;5.32;;;;;;;;;;20802642;28;20053;-78
2022/05/07 14:01:25;;;;;;;7.85;5.07;;;;;;;;;;20805466;28;20061;-78
2022/05/07 14:11:27;;;;;;;8.60;5.28;;;;;;;;;;20756665;28;20049;-78
2022/05/07 14:21:29;;;;;;;8.40;5.20;;;;;;;;;;20798302;28;20053;-78
2022/05/07 14:31:31;;;;;;;6.30;4.70;;;;;;;;;;20801622;28;20045;-78
2022/05/07 14:41:33;;;;;;;7.15;4.60;;;;;;;;;;20804715;28;20049;-78
2022/05/07 14:51:37;;;;;;;5.32;4.60;;;;;;;;;;20793673;28;20049;-78
2022/05/07 15:01:58;;;;;;;7.05;4.20;;;;;;;;;;20811117;28;20080;-78
2022/05/07 15:12:01;;;;;;;5.65;4.20;;;;;;;;;;20769135;28;20050;-77
2022/05/07 15:22:03;;;;;;;5.97;3.63;;;;;;;;;;20748535;28;20066;-78
2022/05/07 15:42:26;;;;;;;2.72;2.30;;;;;;;;;;20748100;28;20045;-83
2022/05/07 15:52:28;;;;;;;2.63;2.30;;;;;;;;;;20728085;28;20383;-78
2022/05/07 16:02:31;;;;;;;3.10;2.03;;;;;;;;;;20730665;28;20526;-78
2022/05/07 16:12:33;;;;;;;3.50;2.17;;;;;;;;;;20746686;28;20042;-78
2022/05/07 16:32:55;;;;;;;2.13;1.75;;;;;;;;;;20832030;28;20050;-78
2022/05/07 16:42:58;;;;;;;2.10;1.90;;;;;;;;;;20831430;28;20049;-78
2022/05/07 16:53:00;;;;;;;3.05;2.00;;;;;;;;;;20830397;28;20045;-78
2022/05/07 17:03:02;;;;;;;2.08;1.80;;;;;;;;;;20813897;28;20506;-78
2022/05/07 17:13:04;;;;;;;2.55;1.73;;;;;;;;;;20811192;28;20049;-78
2022/05/07 17:23:11;;;;;;;4.57;2.00;;;;;;;;;;20827132;28;20067;-81
2022/05/07 17:33:14;;;;;;;2.83;1.83;;;;;;;;;;20809116;28;20056;-78
2022/05/07 17:43:17;;;;;;;2.10;1.45;;;;;;;;;;20825710;28;20049;-78
2022/05/07 17:53:18;;;;;;;2.38;1.65;;;;;;;;;;20808011;28;20625;-78
2022/05/07 18:03:24;;;;;;;3.10;1.70;;;;;;;;;;20813029;28;20132;-80
2022/05/07 18:13:27;;;;;;;3.75;2.08;;;;;;;;;;20824521;28;20049;-79
2022/05/07 18:23:29;;;;;;;3.70;2.05;;;;;;;;;;20789690;28;20060;-79
2022/05/07 18:33:33;;;;;;;3.17;1.98;;;;;;;;;;20808259;28;20041;-79
2022/05/07 18:43:35;;;;;;;3.85;2.35;;;;;;;;;;20775301;28;20099;-79
2022/05/07 18:53:38;;;;;;;5.30;2.60;;;;;;;;;;20806115;28;20107;-79
2022/05/07 19:03:40;;;;;;;4.00;2.13;;;;;;;;;;20821995;28;20081;-78
2022/05/07 19:13:42;;;;;;;3.47;2.40;;;;;;;;;;20811055;28;20104;-82
2022/05/07 19:23:51;;;;;;;3.95;1.95;;;;;;;;;;20801104;28;20576;-80
2022/05/07 19:33:59;;;;;;;4.88;2.55;;;;;;;;;;20780582;28;20507;-81
2022/05/07 19:44:06;;;;;;;2.42;2.22;;;;;;;;;;20800922;28;20129;-82
2022/05/07 19:54:09;;;;;;;3.22;2.28;;;;;;;;;;20811794;28;20075;-81
2022/05/07 20:04:11;;;;;;;3.67;2.75;;;;;;;;;;20809291;28;20045;-84
2022/05/07 20:14:14;;;;;;;3.53;2.60;;;;;;;;;;20803767;28;20052;-82
2022/05/07 20:24:22;;;;;;;5.72;2.65;;;;;;;;;;20804070;28;20140;-82
2022/05/07 20:34:28;;;;;;;4.45;2.88;;;;;;;;;;20791653;28;20052;-82
2022/05/07 20:54:52;;;;;;;3.53;2.65;;;;;;;;;;20800332;28;20120;-81
2022/05/07 21:04:58;;;;;;;5.30;2.78;;;;;;;;;;20815441;28;20132;-80
2022/05/07 21:15:00;;;;;;;4.88;2.70;;;;;;;;;;20803881;28;20415;-82
2022/05/07 21:35:25;;;;;;;5.45;2.70;;;;;;;;;;20819029;28;20073;-79
2022/05/07 21:45:31;;;;;;;5.30;2.60;;;;;;;;;;20804822;28;20046;-79
2022/05/07 21:55:33;;;;;;;5.07;2.10;;;;;;;;;;20796323;28;20045;-79
2022/05/07 22:05:34;;;;;;;6.70;2.95;;;;;;;;;;20817223;28;20049;-80
2022/05/07 22:15:36;;;;;;;4.28;2.38;;;;;;;;;;20821107;28;20141;-78
2022/05/07 22:25:38;;;;;;;5.22;2.17;;;;;;;;;;20817130;28;20057;-79
2022/05/07 22:35:40;;;;;;;4.88;2.10;;;;;;;;;;20783752;28;20045;-80
2022/05/07 22:45:42;;;;;;;4.82;2.10;;;;;;;;;;20798775;28;20491;-80
2022/05/07 22:55:44;;;;;;;4.40;2.05;;;;;;;;;;20816745;28;20392;-81
2022/05/07 23:05:46;;;;;;;5.50;2.60;;;;;;;;;;20814751;28;20034;-79
2022/05/07 23:15:48;;;;;;;5.80;2.20;;;;;;;;;;20808020;28;20502;-79
2022/05/07 23:25:51;;;;;;;5.03;2.00;;;;;;;;;;20818455;28;20139;-77
2022/05/07 23:35:53;;;;;;;6.18;2.28;;;;;;;;;;20816422;28;20053;-78
2022/05/07 23:45:59;;;;;;;4.40;1.80;;;;;;;;;;20776817;28;20061;-79
2022/05/07 23:56:02;;;;;;;5.75;2.28;;;;;;;;;;20807382;28;20049;-78
